createdAt,value
2022-11-08T00:03:06.040Z,4.20
2022-11-08T00:07:26.668Z,4.60
2022-11-08T00:11:47.136Z,4.27
2022-11-08T00:15:49.013Z,2.90
2022-11-08T00:19:51.041Z,3.30
2022-11-08T00:23:53.057Z,4.70
2022-11-08T00:27:55.044Z,2.60
2022-11-08T00:31:56.930Z,5.17
2022-11-08T00:35:59.763Z,4.00
2022-11-08T00:40:01.896Z,6.60
2022-11-08T00:44:06.903Z,8.30
2022-11-08T00:48:08.773Z,6.50
2022-11-08T00:52:10.633Z,9.10
2022-11-08T00:56:14.445Z,8.80
2022-11-08T01:00:16.890Z,7.57
2022-11-08T01:04:19.312Z,6.83
2022-11-08T01:08:22.492Z,5.87
2022-11-08T01:12:24.388Z,4.87
2022-11-08T01:16:29.551Z,3.83
2022-11-08T01:20:31.507Z,3.57
2022-11-08T01:24:38.506Z,5.23
2022-11-08T01:28:40.592Z,5.77
2022-11-08T01:32:44.562Z,5.30
2022-11-08T01:36:50.188Z,6.40
2022-11-08T01:40:56.012Z,6.53
2022-11-08T01:45:04.646Z,5.33
2022-11-08T01:49:18.958Z,5.13
2022-11-08T01:53:20.850Z,4.73
2022-11-08T01:57:47.975Z,6.70
2022-11-08T02:01:50.065Z,6.43
2022-11-08T02:05:54.571Z,10.27
2022-11-08T02:09:56.581Z,4.80
2022-11-08T02:13:58.561Z,5.63
2022-11-08T02:18:00.433Z,4.77
2022-11-08T02:22:04.357Z,8.10
2022-11-08T02:26:06.330Z,5.83
2022-11-08T02:30:09.113Z,6.90
2022-11-08T02:34:11.091Z,6.67
2022-11-08T02:38:12.965Z,5.27
2022-11-08T02:42:16.474Z,5.30
2022-11-08T02:46:18.765Z,6.07
2022-11-08T02:50:20.889Z,5.67
2022-11-08T02:54:22.799Z,8.67
2022-11-08T02:58:24.862Z,8.07
2022-11-08T03:02:33.195Z,6.07
2022-11-08T03:06:41.161Z,6.77
2022-11-08T03:10:49.125Z,6.40
2022-11-08T03:14:57.082Z,6.70
2022-11-08T03:19:05.102Z,6.07
2022-11-08T03:23:07.145Z,7.03
2022-11-08T03:27:09.019Z,8.80
2022-11-08T03:31:10.912Z,7.83
2022-11-08T03:35:14.098Z,8.33
2022-11-08T03:39:16.216Z,8.60
2022-11-08T03:43:18.160Z,8.20
2022-11-08T03:47:20.221Z,7.70
2022-11-08T03:51:22.111Z,9.20
2022-11-08T03:55:25.796Z,7.00
2022-11-08T03:59:27.644Z,8.87
2022-11-08T04:03:32.383Z,9.30
2022-11-08T04:07:34.724Z,9.70
2022-11-08T04:12:13.203Z,8.17
2022-11-08T04:16:17.894Z,8.93
2022-11-08T04:20:39.122Z,11.20
2022-11-08T04:24:44.963Z,9.73
2022-11-08T04:28:46.934Z,9.17
2022-11-08T04:32:48.740Z,8.37
2022-11-08T04:36:50.759Z,7.37
2022-11-08T04:40:53.952Z,7.17
2022-11-08T04:44:56.069Z,10.53
2022-11-08T04:49:01.844Z,8.97
2022-11-08T04:53:04.512Z,9.03
2022-11-08T04:57:08.103Z,8.43
2022-11-08T05:01:12.351Z,6.90
2022-11-08T05:05:14.314Z,9.40
2022-11-08T05:09:19.010Z,8.60
2022-11-08T05:13:21.279Z,8.27
2022-11-08T05:17:23.217Z,9.30
2022-11-08T05:21:43.900Z,8.97
2022-11-08T05:25:46.513Z,8.90
2022-11-08T05:30:41.642Z,8.17
2022-11-08T05:34:43.563Z,9.63
2022-11-08T05:38:45.631Z,9.20
2022-11-08T05:42:49.613Z,10.67
2022-11-08T05:47:03.362Z,10.10
2022-11-08T05:51:05.523Z,9.97
2022-11-08T05:55:08.033Z,9.23
2022-11-08T05:59:11.185Z,9.40
2022-11-08T06:03:36.096Z,10.53
2022-11-08T06:07:38.401Z,7.60
2022-11-08T06:11:40.393Z,7.37
2022-11-08T06:17:03.741Z,11.37
2022-11-08T06:21:42.549Z,8.73
2022-11-08T06:26:10.501Z,9.33
2022-11-08T06:30:15.180Z,10.47
2022-11-08T06:34:45.378Z,8.77
2022-11-08T06:39:14.813Z,8.80
2022-11-08T07:08:25.824Z,11.03
2022-11-08T07:13:52.855Z,8.00
2022-11-08T07:18:18.080Z,10.27
2022-11-08T07:55:00.511Z,8.10
2022-11-08T09:43:08.526Z,10.43
2022-11-08T09:48:43.474Z,9.23
2022-11-08T09:52:50.961Z,8.47
2022-11-08T09:57:10.414Z,8.50
2022-11-08T10:02:11.379Z,9.13
2022-11-08T10:07:25.419Z,7.47
2022-11-08T10:17:59.737Z,8.73
2022-11-08T12:43:48.359Z,1.10
2022-11-08T12:48:31.906Z,2.00
2022-11-08T12:53:14.796Z,2.17
2022-11-08T12:57:32.405Z,1.20
2022-11-08T13:11:15.724Z,1.80
2022-11-08T13:16:39.378Z,1.97
2022-11-08T13:20:49.476Z,2.80
2022-11-08T13:25:00.858Z,1.47
2022-11-08T13:29:39.206Z,1.57
2022-11-08T13:33:51.805Z,2.57
2022-11-08T13:38:15.321Z,2.20
2022-11-08T13:42:17.375Z,3.13
2022-11-08T13:46:30.517Z,1.97
2022-11-08T13:56:39.855Z,1.27
2022-11-08T14:40:22.815Z,2.23
2022-11-08T14:44:24.825Z,2.83
2022-11-08T14:48:59.378Z,2.43
2022-11-08T17:01:14.073Z,8.43
2022-11-08T17:26:30.798Z,12.50
2022-11-08T17:31:14.553Z,10.97
2022-11-08T17:35:52.192Z,11.10
2022-11-08T17:40:47.415Z,9.47
2022-11-08T17:49:44.044Z,10.70
2022-11-08T17:54:06.660Z,9.23
2022-11-08T17:58:23.530Z,9.87
2022-11-08T18:02:39.554Z,10.17
2022-11-08T18:11:57.935Z,9.40
2022-11-08T18:16:41.859Z,9.13
2022-11-08T18:21:07.244Z,11.27
2022-11-08T18:25:14.294Z,9.40
2022-11-08T18:29:31.859Z,8.40
2022-11-08T18:33:41.909Z,9.23
2022-11-08T18:37:54.685Z,9.13
2022-11-08T18:42:21.598Z,8.40
2022-11-08T18:46:52.998Z,10.63
2022-11-08T18:51:17.900Z,10.50
2022-11-08T18:55:36.643Z,9.00
2022-11-08T19:04:13.888Z,9.80
2022-11-08T19:08:38.577Z,10.47
2022-11-08T19:12:51.091Z,7.70
2022-11-08T19:16:56.219Z,9.60
2022-11-08T19:21:06.972Z,7.07
2022-11-08T19:25:16.584Z,7.80
2022-11-08T19:29:47.182Z,9.23
2022-11-08T19:38:30.244Z,7.03
2022-11-08T19:42:37.178Z,9.97
2022-11-08T19:46:40.684Z,10.43
2022-11-08T19:51:05.776Z,10.23
2022-11-08T19:55:14.436Z,10.77
2022-11-08T19:59:17.388Z,7.50
2022-11-08T20:03:41.185Z,8.90
2022-11-08T20:07:53.836Z,9.80
2022-11-08T20:12:16.646Z,10.77
2022-11-08T20:16:34.611Z,9.73
2022-11-08T20:20:49.829Z,12.30
2022-11-08T20:24:55.674Z,10.70
2022-11-08T20:29:04.259Z,8.23
2022-11-08T20:33:18.560Z,9.50
2022-11-08T20:37:23.822Z,9.20
2022-11-08T20:41:38.072Z,8.57
2022-11-08T20:45:57.991Z,10.20
2022-11-08T20:50:05.427Z,8.13
2022-11-08T20:54:07.632Z,10.33
2022-11-08T20:58:09.640Z,9.03
2022-11-08T21:02:12.277Z,10.03
2022-11-08T21:06:17.103Z,7.43
2022-11-08T21:10:41.523Z,10.67
2022-11-08T21:14:43.712Z,8.43
2022-11-08T21:18:46.067Z,7.93
2022-11-08T21:22:58.396Z,9.30
2022-11-08T21:31:35.013Z,9.43
2022-11-08T21:35:46.052Z,8.43
2022-11-08T21:40:14.394Z,7.77
2022-11-08T21:44:16.636Z,7.80
2022-11-08T21:48:21.496Z,8.83
2022-11-08T21:52:26.360Z,7.37
2022-11-08T21:56:33.973Z,6.40
2022-11-08T22:00:43.643Z,6.27
2022-11-08T22:04:45.636Z,6.40
2022-11-08T22:08:48.317Z,7.23
2022-11-08T22:12:50.519Z,5.97
2022-11-08T22:16:52.631Z,7.13
2022-11-08T22:21:12.795Z,6.87
2022-11-08T22:25:14.710Z,6.57
2022-11-08T22:29:16.875Z,8.20
2022-11-08T22:33:19.863Z,9.37
2022-11-08T22:37:21.899Z,9.27
2022-11-08T22:41:23.727Z,6.67
2022-11-08T22:45:25.558Z,7.97
2022-11-08T22:49:27.363Z,8.23
2022-11-08T22:53:29.290Z,10.10
2022-11-08T22:57:31.246Z,11.47
2022-11-08T23:01:33.420Z,10.40
2022-11-08T23:05:35.199Z,11.30
2022-11-08T23:09:37.076Z,10.77
2022-11-08T23:14:00.323Z,11.03
2022-11-08T23:18:02.217Z,11.03
2022-11-08T23:22:24.367Z,12.27
2022-11-08T23:26:45.088Z,12.53
2022-11-08T23:31:05.327Z,13.33
2022-11-08T23:35:07.518Z,14.80
2022-11-08T23:39:09.463Z,14.20
2022-11-08T23:43:35.684Z,14.07
2022-11-08T23:47:37.549Z,15.17
2022-11-08T23:51:39.534Z,15.67
2022-11-08T23:55:41.357Z,15.30
2022-11-08T23:59:43.153Z,14.07
